This is the latest recevied weather packets stored in our database for station/object M0HPP-13. If no packets are shown the sender has not sent any weather packets the latest 10 day(s).
| Time | Temp. | Humidity | Pressure | Rain* | Wind** | Luminosity | Snow |
|---|---|---|---|---|---|---|---|
| 1777606219 | 7.78° C | 76% | 1018.3 hPa | 0 mm | - | 0 W/m² | - |
| 1777605619 | 7.78° C | 74% | 1018.4 hPa | 0 mm | - | 0 W/m² | - |
| 1777605019 | 7.78° C | 75% | 1018.4 hPa | 0 mm | - | 0 W/m² | - |
| 1777604419 | 6.67° C | 81% | 1018.6 hPa | 0 mm | - | 0 W/m² | - |
| 1777603819 | 6.67° C | 81% | 1018.7 hPa | 0 mm | - | 0 W/m² | - |
| 1777603219 | 6.67° C | 78% | 1018.8 hPa | 0 mm | - | 0 W/m² | - |
| 1777602619 | 7.78° C | 75% | 1018.9 hPa | 0 mm | - | 0 W/m² | - |
| 1777602019 | 7.22° C | 77% | 1019 hPa | 0 mm | - | 0 W/m² | - |
| 1777601419 | 7.78° C | 73% | 1019.1 hPa | 0 mm | - | 0 W/m² | - |
| 1777600819 | 8.33° C | 73% | 1019.1 hPa | 0 mm | - | 0 W/m² | - |
| 1777600219 | 8.33° C | 72% | 1019.3 hPa | 0 mm | - | 0 W/m² | - |
| 1777599619 | 7.78° C | 74% | 1019.4 hPa | 0 mm | - | 0 W/m² | - |
| 1777599019 | 6.67° C | 79% | 1019.5 hPa | 0 mm | - | 0 W/m² | - |
| 1777598419 | 7.22° C | 77% | 1019.5 hPa | 0 mm | - | 0 W/m² | - |
| 1777597819 | 7.22° C | 77% | 1019.6 hPa | 0 mm | - | 0 W/m² | - |
| 1777597219 | 6.67° C | 80% | 1019.7 hPa | 0 mm | - | 0 W/m² | - |
| 1777596619 | 6.67° C | 79% | 1019.7 hPa | 0 mm | - | 0 W/m² | - |
| 1777596019 | 7.78° C | 77% | 1019.6 hPa | 0 mm | - | 0 W/m² | - |
| 1777595419 | 7.78° C | 76% | 1019.7 hPa | 0 mm | - | 0 W/m² | - |
| 1777594819 | 8.33° C | 77% | 1019.7 hPa | 0 mm | - | 0 W/m² | - |
| 1777594219 | 7.78° C | 78% | 1019.7 hPa | 0 mm | - | 0 W/m² | - |
| 1777593619 | 7.78° C | 78% | 1019.8 hPa | 0 mm | - | 0 W/m² | - |
| 1777593019 | 7.78° C | 78% | 1019.8 hPa | 0 mm | - | 0 W/m² | - |
| 1777592419 | 8.33° C | 77% | 1019.9 hPa | 0 mm | - | 0 W/m² | - |
| 1777591819 | 7.78° C | 79% | 1019.9 hPa | 0 mm | - | 0 W/m² | - |
* Rain latest hour (hover to see other rain measurements)
** Current wind speed in m/s (hover to see current wind gust speed)